Time;durP1;ratioP1;P1;durP2;ratioP2;P2;SDS_P1;SDS_P2;PMS_P1;PMS_P2;Temp;Humidity;BMP_temperature;BMP_pressure;BME280_temperature;BME280_humidity;BME280_pressure;Samples;Min_cycle;Max_cycle;Signal;HPM_P1;HPM_P2
2022/06/13 00:01:08;;;;;;;17.10;10.15;;;28.30;99.90;;;;;;4147171;28;20046;-69
2022/06/13 00:03:12;;;;;;;17.38;10.75;;;28.30;99.90;;;;;;4150233;28;20046;-68
2022/06/13 00:05:17;;;;;;;15.13;10.20;;;28.30;99.90;;;;;;4151310;28;20125;-70
2022/06/13 00:07:24;;;;;;;15.93;9.45;;;28.40;99.90;;;;;;4096917;28;20715;-69
2022/06/13 00:09:29;;;;;;;17.77;9.65;;;28.40;99.90;;;;;;4148229;28;20097;-70
2022/06/13 00:11:34;;;;;;;19.00;10.13;;;28.40;99.90;;;;;;4145660;28;20546;-69
2022/06/13 00:13:44;;;;;;;16.75;8.48;;;28.40;99.90;;;;;;4143077;28;20145;-70
2022/06/13 00:15:49;;;;;;;19.17;9.32;;;28.50;99.90;;;;;;4122623;28;20046;-66
2022/06/13 00:17:54;;;;;;;18.73;9.95;;;28.60;99.90;;;;;;4157951;28;20061;-67
2022/06/13 00:20:01;;;;;;;15.98;9.00;;;28.70;99.90;;;;;;4163486;28;20045;-67
2022/06/13 00:22:06;;;;;;;13.68;8.23;;;28.70;99.90;;;;;;4158046;28;20197;-67
2022/06/13 00:24:11;;;;;;;18.63;9.40;;;28.80;99.90;;;;;;4160800;28;20054;-68
2022/06/13 00:26:21;;;;;;;14.65;8.32;;;28.70;99.90;;;;;;4152130;28;20148;-67
2022/06/13 00:28:25;;;;;;;17.20;8.70;;;28.80;99.90;;;;;;4138174;28;20195;-67
2022/06/13 00:30:30;;;;;;;16.10;8.20;;;28.90;99.90;;;;;;4156299;28;20037;-67
2022/06/13 00:32:37;;;;;;;19.25;9.02;;;28.80;99.90;;;;;;4156174;28;20745;-67
2022/06/13 00:34:41;;;;;;;12.82;8.50;;;28.80;99.90;;;;;;4157026;28;20136;-68
2022/06/13 00:36:46;;;;;;;16.13;8.43;;;28.90;99.90;;;;;;4155875;28;20642;-67
2022/06/13 00:38:52;;;;;;;14.55;8.35;;;28.90;99.90;;;;;;4156823;28;20138;-67
2022/06/13 00:40:56;;;;;;;16.15;8.98;;;29.00;99.90;;;;;;4161104;28;20590;-67
2022/06/13 00:43:03;;;;;;;15.63;8.70;;;29.10;99.90;;;;;;4161792;28;20051;-67
2022/06/13 00:45:19;;;;;;;16.20;8.35;;;29.10;99.90;;;;;;4160331;28;20081;-67
2022/06/13 00:47:24;;;;;;;14.18;8.35;;;29.20;99.90;;;;;;4161821;28;20099;-69
2022/06/13 00:49:38;;;;;;;19.55;8.30;;;29.20;99.90;;;;;;4161957;28;20053;-66
2022/06/13 00:51:51;;;;;;;13.93;8.07;;;29.40;99.90;;;;;;4159913;28;20511;-67
2022/06/13 00:53:56;;;;;;;13.65;8.10;;;29.40;99.90;;;;;;4159367;28;20743;-66
2022/06/13 00:56:12;;;;;;;14.75;7.72;;;29.50;99.90;;;;;;4153801;28;20053;-66
2022/06/13 00:58:21;;;;;;;14.82;8.05;;;29.50;99.90;;;;;;4105314;28;20058;-66
2022/06/13 01:00:25;;;;;;;17.88;8.80;;;29.60;99.90;;;;;;4164235;28;20163;-66
2022/06/13 01:02:30;;;;;;;16.75;9.27;;;29.60;99.90;;;;;;4157114;28;20431;-67
2022/06/13 01:04:39;;;;;;;18.20;8.93;;;29.70;99.90;;;;;;4174145;28;20577;-68
2022/06/13 01:06:46;;;;;;;16.05;8.48;;;29.70;99.90;;;;;;4132746;28;20053;-67
2022/06/13 01:08:50;;;;;;;14.43;8.10;;;29.80;99.90;;;;;;4160680;28;20046;-67
2022/06/13 01:13:17;;;;;;;13.60;8.27;;;29.80;99.90;;;;;;4161417;28;20107;-67
2022/06/13 01:15:40;;;;;;;15.70;7.85;;;29.80;99.90;;;;;;4162393;28;20049;-66
2022/06/13 01:18:18;;;;;;;21.17;8.68;;;29.90;99.90;;;;;;4161744;28;20049;-67
2022/06/13 01:20:38;;;;;;;16.92;8.18;;;29.90;99.90;;;;;;4143775;28;20159;-68
2022/06/13 01:23:07;;;;;;;15.98;8.00;;;30.00;99.90;;;;;;4156061;28;20080;-66
2022/06/13 01:25:22;;;;;;;17.42;8.77;;;30.00;99.90;;;;;;4161191;28;20042;-68
2022/06/13 01:27:39;;;;;;;16.40;8.30;;;30.10;99.90;;;;;;4159090;28;20048;-69
2022/06/13 01:29:58;;;;;;;17.20;8.82;;;30.10;99.90;;;;;;4160006;28;20054;-67
2022/06/13 01:32:07;;;;;;;15.20;8.15;;;30.10;99.90;;;;;;4111322;28;20051;-67
2022/06/13 01:34:36;;;;;;;16.80;8.05;;;30.10;99.90;;;;;;4160712;28;20045;-66
2022/06/13 01:37:01;;;;;;;12.48;7.03;;;30.10;99.90;;;;;;4161456;28;20556;-67
2022/06/13 01:39:17;;;;;;;14.38;6.45;;;29.90;99.90;;;;;;4160610;28;20045;-67
2022/06/13 01:41:54;;;;;;;13.20;6.85;;;30.00;99.90;;;;;;4148743;28;20555;-67
2022/06/13 01:44:15;;;;;;;15.77;7.50;;;30.20;99.90;;;;;;4161798;28;20092;-66
2022/06/13 01:46:44;;;;;;;16.55;8.15;;;30.30;99.90;;;;;;4119823;28;20083;-66
2022/06/13 01:48:51;;;;;;;15.90;7.55;;;30.40;99.90;;;;;;4143628;28;20053;-66
2022/06/13 01:51:08;;;;;;;13.20;8.30;;;30.40;99.90;;;;;;4164975;28;20056;-66
2022/06/13 01:53:37;;;;;;;14.50;7.35;;;30.50;99.90;;;;;;4164947;28;20499;-66
2022/06/13 01:55:48;;;;;;;16.90;7.72;;;30.50;99.90;;;;;;4164284;28;20135;-66
2022/06/13 01:57:59;;;;;;;15.20;7.60;;;30.60;99.90;;;;;;4163571;28;20072;-66
2022/06/13 02:00:10;;;;;;;13.80;6.80;;;30.50;99.90;;;;;;4171027;28;20425;-66
2022/06/13 02:02:37;;;;;;;13.70;6.95;;;30.40;99.90;;;;;;4170999;28;20731;-66
2022/06/13 02:04:45;;;;;;;16.02;7.55;;;30.50;99.90;;;;;;4162784;28;20045;-66
2022/06/13 02:06:57;;;;;;;11.57;6.80;;;30.60;99.90;;;;;;4131316;28;20050;-66
2022/06/13 02:09:04;;;;;;;14.40;7.53;;;30.50;99.90;;;;;;4139791;28;20054;-66
2022/06/13 02:11:15;;;;;;;14.75;7.72;;;30.40;99.90;;;;;;4165154;28;20480;-66
2022/06/13 02:13:36;;;;;;;13.20;7.18;;;30.60;99.90;;;;;;4147647;28;20053;-66
2022/06/13 02:15:43;;;;;;;16.33;7.78;;;30.80;99.90;;;;;;4146591;28;20050;-66
2022/06/13 02:18:00;;;;;;;19.90;8.05;;;30.90;99.90;;;;;;4131890;28;20050;-66
2022/06/13 02:20:16;;;;;;;14.83;7.93;;;30.70;99.90;;;;;;4163398;28;20045;-66
2022/06/13 02:22:35;;;;;;;15.02;7.18;;;30.80;99.90;;;;;;4152117;28;20095;-66
2022/06/13 02:24:48;;;;;;;12.80;7.30;;;30.80;99.90;;;;;;4158227;28;21755;-65
2022/06/13 02:26:53;;;;;;;13.88;7.60;;;30.90;99.90;;;;;;4146847;28;20504;-65
2022/06/13 02:29:05;;;;;;;14.93;7.20;;;30.90;99.90;;;;;;4163622;28;20041;-65
2022/06/13 02:31:24;;;;;;;13.07;8.52;;;31.00;99.90;;;;;;4139516;28;20524;-66
2022/06/13 02:33:32;;;;;;;13.25;7.00;;;31.10;99.90;;;;;;4140384;28;20034;-65
2022/06/13 02:35:52;;;;;;;15.60;7.95;;;31.20;99.90;;;;;;4141479;28;20065;-65
2022/06/13 02:38:00;;;;;;;13.95;7.28;;;31.10;99.90;;;;;;4126241;28;20057;-65
2022/06/13 02:40:11;;;;;;;12.93;6.80;;;31.10;99.90;;;;;;4129985;28;20157;-65
2022/06/13 02:42:24;;;;;;;14.70;6.82;;;31.10;99.90;;;;;;4164453;28;20845;-65
2022/06/13 02:44:43;;;;;;;11.40;6.55;;;31.20;99.90;;;;;;4144665;28;20037;-66
2022/06/13 02:46:58;;;;;;;13.23;6.90;;;31.30;99.80;;;;;;4109960;28;20043;-66
2022/06/13 02:49:06;;;;;;;12.50;6.55;;;31.50;99.90;;;;;;4143973;28;20461;-66
2022/06/13 02:51:30;;;;;;;15.63;6.65;;;31.60;99.90;;;;;;4163303;28;20033;-66
2022/06/13 02:53:58;;;;;;;14.70;6.50;;;31.70;99.30;;;;;;4145694;28;20116;-66
2022/06/13 02:56:21;;;;;;;9.77;5.60;;;31.70;98.80;;;;;;4156784;28;20080;-66
2022/06/13 02:58:33;;;;;;;12.75;5.40;;;31.80;98.90;;;;;;4164541;28;20061;-66
2022/06/13 03:01:12;;;;;;;12.35;4.70;;;31.90;98.70;;;;;;4146208;28;20069;-66
2022/06/13 03:03:22;;;;;;;9.27;5.05;;;31.70;97.80;;;;;;4158213;28;20064;-66
2022/06/13 03:05:41;;;;;;;12.73;5.03;;;31.80;97.80;;;;;;4165074;28;20083;-66
2022/06/13 03:07:59;;;;;;;10.82;5.40;;;31.90;97.90;;;;;;4147158;28;20050;-65
2022/06/13 03:10:17;;;;;;;10.57;5.20;;;32.00;97.90;;;;;;4147421;28;20157;-65
2022/06/13 03:12:28;;;;;;;10.55;5.32;;;32.20;98.10;;;;;;4162280;28;20054;-65
2022/06/13 03:14:45;;;;;;;9.88;5.03;;;32.30;98.60;;;;;;4164904;28;20048;-65
2022/06/13 03:17:03;;;;;;;8.80;5.40;;;32.50;98.70;;;;;;4165059;28;20057;-65
2022/06/13 03:19:31;;;;;;;9.05;4.97;;;32.50;98.50;;;;;;4163658;28;20053;-65
2022/06/13 03:21:52;;;;;;;12.27;5.40;;;32.60;98.40;;;;;;4163820;28;20045;-65
2022/06/13 03:24:01;;;;;;;11.40;5.10;;;32.60;98.20;;;;;;4162979;28;20048;-65
2022/06/13 03:26:09;;;;;;;10.73;5.07;;;32.60;98.30;;;;;;4157521;28;20042;-65
2022/06/13 03:28:20;;;;;;;7.70;5.07;;;32.70;97.30;;;;;;4145991;28;20037;-65
2022/06/13 03:30:27;;;;;;;14.07;6.32;;;32.60;97.40;;;;;;4145882;28;20063;-66
2022/06/13 03:32:37;;;;;;;12.90;6.53;;;32.60;98.20;;;;;;4139099;28;20173;-66
2022/06/13 03:34:46;;;;;;;14.18;5.90;;;32.70;98.00;;;;;;4157613;28;20573;-65
2022/06/13 03:36:55;;;;;;;10.23;5.75;;;32.80;98.20;;;;;;4130012;28;20057;-66
2022/06/13 03:39:17;;;;;;;9.60;5.38;;;32.90;98.20;;;;;;4146570;28;20089;-65
2022/06/13 03:41:26;;;;;;;10.63;5.00;;;33.00;97.70;;;;;;4163423;28;20053;-67
2022/06/13 03:43:47;;;;;;;10.07;5.07;;;33.10;97.30;;;;;;4162157;28;20089;-66
2022/06/13 03:46:02;;;;;;;11.35;5.10;;;33.20;96.80;;;;;;4158052;28;20511;-66
2022/06/13 03:48:24;;;;;;;10.40;4.90;;;33.20;96.80;;;;;;4162494;28;20040;-66
2022/06/13 03:50:45;;;;;;;12.25;5.25;;;33.10;96.80;;;;;;4137958;28;20089;-66
2022/06/13 03:52:53;;;;;;;10.23;4.78;;;33.10;96.60;;;;;;4155648;28;20497;-66
2022/06/13 03:55:09;;;;;;;8.77;4.80;;;33.20;96.80;;;;;;4145747;28;20100;-67
2022/06/13 03:57:47;;;;;;;10.30;4.93;;;33.30;96.70;;;;;;4146537;28;20046;-67
2022/06/13 04:00:05;;;;;;;9.52;4.18;;;33.30;96.00;;;;;;4153887;28;20103;-66
2022/06/13 04:02:13;;;;;;;9.45;4.22;;;33.30;95.10;;;;;;4146802;28;20041;-67
2022/06/13 04:04:20;;;;;;;8.75;3.58;;;33.30;93.80;;;;;;4145887;28;20535;-66
2022/06/13 04:06:38;;;;;;;7.82;3.58;;;33.30;92.40;;;;;;4146470;28;20030;-66
2022/06/13 04:08:43;;;;;;;8.70;3.30;;;33.10;91.90;;;;;;4163326;28;20049;-67
2022/06/13 04:11:04;;;;;;;6.43;3.38;;;33.20;92.30;;;;;;4161655;28;20045;-67
2022/06/13 04:13:26;;;;;;;9.05;3.58;;;33.30;93.20;;;;;;4149967;28;20149;-66
2022/06/13 04:16:02;;;;;;;7.45;3.58;;;33.30;92.60;;;;;;4154148;28;20132;-67
2022/06/13 04:18:34;;;;;;;9.07;3.60;;;33.20;92.20;;;;;;4154873;28;20496;-67
2022/06/13 04:20:43;;;;;;;10.18;3.70;;;33.30;92.60;;;;;;4162542;28;20049;-67
2022/06/13 04:23:01;;;;;;;10.10;3.40;;;33.30;92.50;;;;;;4161912;28;20056;-67
2022/06/13 04:25:14;;;;;;;6.22;3.22;;;33.40;92.50;;;;;;4150989;28;20042;-67
2022/06/13 04:27:44;;;;;;;7.82;3.30;;;33.60;93.20;;;;;;4146822;28;20050;-67
2022/06/13 04:30:02;;;;;;;6.90;3.08;;;33.70;92.80;;;;;;4162897;28;20484;-67
2022/06/13 04:32:13;;;;;;;6.47;3.60;;;33.70;91.90;;;;;;4153574;28;20128;-67
2022/06/13 04:34:22;;;;;;;12.15;3.70;;;33.70;91.80;;;;;;4138772;28;20042;-67
2022/06/13 04:36:26;;;;;;;6.85;3.22;;;33.90;91.80;;;;;;4145344;28;20034;-67
2022/06/13 04:38:33;;;;;;;8.32;3.20;;;34.00;92.00;;;;;;4112127;28;20058;-67
2022/06/13 04:40:44;;;;;;;6.57;3.30;;;34.00;92.40;;;;;;4127652;28;20065;-67
2022/06/13 04:42:49;;;;;;;9.95;3.78;;;34.10;92.50;;;;;;4112103;28;20077;-67
2022/06/13 04:44:58;;;;;;;11.55;3.88;;;34.10;91.30;;;;;;4111797;28;20049;-66
2022/06/13 04:47:07;;;;;;;6.00;3.20;;;34.20;91.80;;;;;;4078927;29;20582;-66
2022/06/13 04:49:36;;;;;;;8.75;3.30;;;34.00;92.20;;;;;;4127332;28;20065;-66
2022/06/13 04:51:42;;;;;;;9.57;3.58;;;34.20;92.40;;;;;;4112201;28;20073;-66
2022/06/13 04:53:55;;;;;;;10.43;3.58;;;34.40;91.90;;;;;;4111346;28;20046;-66
2022/06/13 04:56:01;;;;;;;7.77;3.80;;;34.40;91.40;;;;;;4111409;28;20134;-67
2022/06/13 04:58:27;;;;;;;5.80;3.40;;;34.40;91.00;;;;;;4127159;28;20058;-66
2022/06/13 05:00:32;;;;;;;6.70;3.17;;;34.30;90.30;;;;;;4127094;28;20042;-66
2022/06/13 05:02:46;;;;;;;8.27;3.53;;;34.30;90.90;;;;;;4095411;28;20126;-66
2022/06/13 05:04:52;;;;;;;8.38;3.88;;;34.20;90.20;;;;;;4095922;28;20047;-67
2022/06/13 05:07:11;;;;;;;11.60;4.65;;;34.20;90.80;;;;;;4127371;28;20137;-66
2022/06/13 05:09:36;;;;;;;10.85;5.85;;;34.40;90.50;;;;;;4118869;28;20061;-66
2022/06/13 05:11:56;;;;;;;9.63;4.13;;;34.30;90.20;;;;;;4140011;28;20045;-65
2022/06/13 05:14:04;;;;;;;10.32;3.65;;;34.20;90.40;;;;;;4161769;28;20111;-66
2022/06/13 05:16:24;;;;;;;9.32;3.53;;;34.40;90.60;;;;;;4160790;28;20049;-66
2022/06/13 05:18:45;;;;;;;8.80;3.55;;;34.70;90.90;;;;;;4130133;28;20044;-66
2022/06/13 05:21:08;;;;;;;8.85;3.72;;;34.80;90.30;;;;;;4125408;28;20056;-65
2022/06/13 05:23:29;;;;;;;8.95;3.65;;;34.90;90.10;;;;;;4117282;28;20046;-66
2022/06/13 05:25:57;;;;;;;9.23;4.10;;;35.00;90.90;;;;;;4147428;28;20048;-66
2022/06/13 05:28:04;;;;;;;7.90;3.47;;;35.10;90.50;;;;;;4143175;28;20100;-66
2022/06/13 05:30:15;;;;;;;6.78;3.58;;;34.80;89.80;;;;;;4151808;28;20080;-66
2022/06/13 05:32:21;;;;;;;8.05;3.95;;;34.90;90.10;;;;;;4129433;28;20100;-66
2022/06/13 05:34:31;;;;;;;12.48;3.65;;;34.80;90.40;;;;;;4147550;28;20057;-66
2022/06/13 05:36:37;;;;;;;9.23;4.63;;;34.70;90.40;;;;;;4136828;28;20529;-66
2022/06/13 05:38:43;;;;;;;7.65;3.83;;;34.50;90.50;;;;;;4144352;28;20057;-67
2022/06/13 05:40:50;;;;;;;9.13;4.22;;;34.50;91.10;;;;;;4140077;28;20649;-66
2022/06/13 05:42:54;;;;;;;7.53;3.85;;;34.60;91.90;;;;;;4146008;28;20046;-66
2022/06/13 05:45:03;;;;;;;7.43;3.45;;;34.50;91.90;;;;;;4150947;28;20132;-66
2022/06/13 05:47:19;;;;;;;8.05;4.00;;;34.80;91.80;;;;;;4158786;28;20042;-66
2022/06/13 05:49:26;;;;;;;7.22;4.03;;;35.00;91.60;;;;;;4155854;28;20132;-66
2022/06/13 05:51:32;;;;;;;8.45;3.80;;;35.20;91.50;;;;;;4155720;28;20033;-66
2022/06/13 05:53:38;;;;;;;8.02;3.92;;;34.90;90.40;;;;;;4142701;28;20041;-66
2022/06/13 05:55:42;;;;;;;8.60;4.57;;;34.70;90.80;;;;;;4145923;28;20042;-66
2022/06/13 05:58:01;;;;;;;11.27;4.40;;;34.60;91.00;;;;;;4153869;28;20132;-66
2022/06/13 06:00:14;;;;;;;9.05;3.95;;;34.70;91.10;;;;;;4117151;28;20082;-65
2022/06/13 06:02:18;;;;;;;10.85;3.90;;;34.80;91.00;;;;;;4147126;28;20112;-65
2022/06/13 06:04:23;;;;;;;6.07;3.60;;;35.00;90.70;;;;;;4154328;28;20065;-65
2022/06/13 06:06:30;;;;;;;6.13;3.42;;;35.20;89.10;;;;;;4160643;28;20465;-65
2022/06/13 06:08:36;;;;;;;8.35;3.95;;;35.00;89.70;;;;;;4157052;28;20041;-65
2022/06/13 06:10:42;;;;;;;9.40;3.60;;;34.80;89.00;;;;;;4144540;28;20501;-65
2022/06/13 06:12:49;;;;;;;6.70;3.88;;;34.60;89.60;;;;;;4140809;28;20432;-66
2022/06/13 06:14:53;;;;;;;5.82;3.50;;;34.40;90.00;;;;;;4156705;28;20095;-66
2022/06/13 06:16:58;;;;;;;9.57;4.07;;;34.30;90.40;;;;;;4157276;28;20694;-66
2022/06/13 06:19:05;;;;;;;7.75;3.97;;;34.20;90.10;;;;;;4171552;28;20063;-67
2022/06/13 06:21:18;;;;;;;7.57;3.47;;;34.20;90.10;;;;;;4177527;28;20051;-66
2022/06/13 06:23:26;;;;;;;8.32;3.88;;;34.30;89.60;;;;;;4163525;28;20780;-66
2022/06/13 06:25:32;;;;;;;7.10;3.67;;;34.30;90.10;;;;;;4173343;28;20037;-66
2022/06/13 06:27:38;;;;;;;8.07;3.80;;;34.40;91.10;;;;;;4177436;28;20103;-66
2022/06/13 06:29:43;;;;;;;6.95;3.60;;;34.70;91.00;;;;;;4173272;28;20499;-66
2022/06/13 06:31:50;;;;;;;7.40;4.22;;;34.80;91.40;;;;;;4163884;28;20559;-66
2022/06/13 06:33:55;;;;;;;10.07;4.22;;;34.80;91.00;;;;;;4145059;28;20104;-66
2022/06/13 06:36:03;;;;;;;8.10;3.78;;;34.60;90.90;;;;;;4180154;28;20095;-66
2022/06/13 06:38:10;;;;;;;7.43;4.00;;;34.60;91.40;;;;;;4180491;28;20044;-66
2022/06/13 06:40:16;;;;;;;10.60;4.55;;;34.60;91.40;;;;;;4163447;28;20057;-66
2022/06/13 06:42:21;;;;;;;10.45;3.90;;;34.60;91.40;;;;;;4146622;28;20103;-66
2022/06/13 06:44:46;;;;;;;8.93;4.13;;;34.60;91.60;;;;;;4145946;28;20082;-66
2022/06/13 06:46:53;;;;;;;9.32;4.63;;;34.80;91.60;;;;;;4145519;28;20132;-66
2022/06/13 06:48:57;;;;;;;8.20;3.83;;;35.20;91.60;;;;;;4122044;28;20140;-66
2022/06/13 06:51:12;;;;;;;8.32;4.13;;;35.30;91.10;;;;;;4145033;28;20469;-67
2022/06/13 06:53:19;;;;;;;6.43;3.70;;;35.10;91.00;;;;;;4129627;28;20050;-67
2022/06/13 07:00:10;;;;;;;6.38;3.55;;;35.60;91.10;;;;;;4119613;28;20077;-67
2022/06/13 07:02:26;;;;;;;7.85;4.30;;;35.80;90.90;;;;;;4145980;28;20046;-66
2022/06/13 07:04:34;;;;;;;7.85;5.97;;;35.90;90.50;;;;;;4112761;28;20050;-67
2022/06/13 07:06:38;;;;;;;11.77;7.28;;;35.90;90.40;;;;;;4113896;28;20109;-66
2022/06/13 07:08:45;;;;;;;9.75;4.00;;;36.00;90.40;;;;;;4135826;28;20291;-66
2022/06/13 07:10:52;;;;;;;10.02;4.68;;;36.00;90.30;;;;;;4114207;28;20078;-66
2022/06/13 07:12:57;;;;;;;6.45;3.72;;;35.90;89.30;;;;;;4145911;28;20838;-66
2022/06/13 07:15:04;;;;;;;9.77;4.30;;;36.00;88.40;;;;;;4140976;28;20046;-66
2022/06/13 07:17:12;;;;;;;9.65;3.95;;;36.00;89.00;;;;;;4161321;28;20132;-66
2022/06/13 07:19:17;;;;;;;10.65;4.47;;;36.10;89.80;;;;;;4169505;28;20073;-65
2022/06/13 07:21:24;;;;;;;7.10;3.67;;;36.00;89.10;;;;;;4150390;28;20045;-66
2022/06/13 07:23:30;;;;;;;8.52;3.50;;;36.10;88.00;;;;;;4154747;28;20068;-66
2022/06/13 07:25:35;;;;;;;7.55;3.63;;;36.10;88.70;;;;;;4150930;28;20034;-65
2022/06/13 07:27:41;;;;;;;8.10;3.50;;;36.20;88.70;;;;;;4146583;28;20069;-66
2022/06/13 07:29:48;;;;;;;9.77;4.00;;;36.20;89.20;;;;;;4172289;28;20094;-66
2022/06/13 07:32:04;;;;;;;6.28;3.22;;;36.30;88.10;;;;;;4156991;28;20042;-66
2022/06/13 07:34:17;;;;;;;6.88;3.10;;;36.30;88.30;;;;;;4146001;28;20089;-66
2022/06/13 07:36:23;;;;;;;8.43;3.78;;;36.10;89.00;;;;;;4138865;28;20049;-67
2022/06/13 07:38:27;;;;;;;7.43;3.30;;;36.00;89.30;;;;;;4145968;28;20058;-67
2022/06/13 07:40:32;;;;;;;7.28;3.33;;;35.80;88.70;;;;;;4130215;28;20062;-67
2022/06/13 07:42:39;;;;;;;11.48;4.10;;;35.70;88.30;;;;;;4147417;28;20096;-67
2022/06/13 07:44:44;;;;;;;5.95;3.20;;;35.80;87.80;;;;;;4146542;28;20489;-67
2022/06/13 07:46:51;;;;;;;8.05;3.42;;;36.00;86.90;;;;;;4161620;28;20041;-66
2022/06/13 07:48:58;;;;;;;4.35;3.00;;;36.10;86.50;;;;;;4148003;28;20030;-67
2022/06/13 07:51:05;;;;;;;4.80;2.85;;;36.00;86.30;;;;;;4146470;28;20096;-67
2022/06/13 07:53:11;;;;;;;6.32;3.25;;;35.80;85.50;;;;;;4167502;28;20459;-67
2022/06/13 07:55:38;;;;;;;6.95;3.55;;;35.60;86.70;;;;;;4157363;28;20033;-67
2022/06/13 07:57:45;;;;;;;6.93;3.03;;;35.80;87.50;;;;;;4163126;28;20214;-67
2022/06/13 07:59:51;;;;;;;6.93;3.38;;;35.80;86.60;;;;;;4161968;28;20111;-66
2022/06/13 08:01:58;;;;;;;6.93;3.15;;;35.60;87.00;;;;;;4129290;28;20046;-66
2022/06/13 08:04:05;;;;;;;8.95;3.10;;;35.50;86.70;;;;;;4165643;28;20087;-66
2022/06/13 08:06:11;;;;;;;6.53;2.92;;;35.50;86.30;;;;;;4160521;28;20207;-66
2022/06/13 08:08:18;;;;;;;6.60;3.40;;;35.50;86.50;;;;;;4163303;28;20045;-66
2022/06/13 08:10:23;;;;;;;6.47;3.25;;;35.50;88.60;;;;;;4161942;28;20053;-67
2022/06/13 08:12:29;;;;;;;8.32;3.30;;;35.50;87.30;;;;;;4162941;28;20083;-66
2022/06/13 08:14:36;;;;;;;6.18;3.00;;;35.70;87.10;;;;;;4161335;28;20128;-67
2022/06/13 08:16:41;;;;;;;8.60;3.38;;;35.70;87.80;;;;;;4129375;28;20066;-66
2022/06/13 08:18:48;;;;;;;10.95;3.65;;;35.80;87.60;;;;;;4162774;28;20133;-67
2022/06/13 08:20:56;;;;;;;6.70;3.15;;;35.60;86.60;;;;;;4163848;28;20045;-67
2022/06/13 08:23:02;;;;;;;4.97;2.80;;;35.70;86.30;;;;;;4163892;28;20111;-67
2022/06/13 08:25:19;;;;;;;6.88;3.15;;;35.80;87.10;;;;;;4166003;28;20045;-67
2022/06/13 08:27:26;;;;;;;6.53;3.10;;;35.90;85.40;;;;;;4131683;28;20046;-67
2022/06/13 08:29:31;;;;;;;7.10;2.65;;;36.00;85.70;;;;;;4162792;28;20526;-67
2022/06/13 08:31:36;;;;;;;9.45;3.05;;;36.00;84.70;;;;;;4163989;28;20049;-67
2022/06/13 08:33:44;;;;;;;3.97;2.95;;;36.00;86.10;;;;;;4163032;28;20202;-67
2022/06/13 08:35:49;;;;;;;6.60;2.90;;;35.90;85.70;;;;;;4146393;28;20034;-67
2022/06/13 08:37:55;;;;;;;5.47;2.85;;;35.80;85.10;;;;;;4164358;28;20047;-67
2022/06/13 08:40:03;;;;;;;7.03;2.85;;;35.80;85.90;;;;;;4127909;28;20039;-67
2022/06/13 08:42:10;;;;;;;7.93;3.78;;;35.80;86.30;;;;;;4145361;28;20049;-66
2022/06/13 08:44:33;;;;;;;7.43;3.75;;;35.80;86.40;;;;;;4161039;28;20050;-66
2022/06/13 08:46:44;;;;;;;7.80;4.20;;;35.90;86.00;;;;;;4123858;28;20054;-66
2022/06/13 08:48:49;;;;;;;5.55;3.20;;;35.80;86.90;;;;;;4138002;28;20431;-66
2022/06/13 08:50:58;;;;;;;6.72;3.50;;;35.80;87.10;;;;;;4149779;28;20137;-66
2022/06/13 08:53:07;;;;;;;8.90;3.40;;;35.60;88.00;;;;;;4126853;28;20105;-66
2022/06/13 08:55:19;;;;;;;10.13;3.83;;;35.50;87.30;;;;;;4161118;28;20037;-66
2022/06/13 08:57:26;;;;;;;6.22;3.58;;;35.40;87.50;;;;;;4165747;28;20053;-67
2022/06/13 08:59:51;;;;;;;9.07;3.80;;;35.50;88.20;;;;;;4162232;28;20053;-66
2022/06/13 09:02:14;;;;;;;9.90;3.33;;;35.60;87.80;;;;;;4155411;28;20049;-66
2022/06/13 09:04:26;;;;;;;6.20;3.28;;;35.50;86.60;;;;;;4169572;28;20045;-66
2022/06/13 09:06:40;;;;;;;8.30;3.35;;;35.40;86.30;;;;;;4158921;28;20420;-67
2022/06/13 09:09:03;;;;;;;7.70;3.45;;;35.40;87.60;;;;;;4162630;28;20045;-66
2022/06/13 09:11:17;;;;;;;8.95;3.40;;;35.50;88.10;;;;;;4144919;28;20116;-67
2022/06/13 09:13:25;;;;;;;7.93;3.38;;;35.50;87.60;;;;;;4136531;28;20085;-66
2022/06/13 09:15:46;;;;;;;5.13;3.00;;;35.60;87.40;;;;;;4128970;28;20085;-66
2022/06/13 09:18:03;;;;;;;5.88;3.25;;;35.70;86.70;;;;;;4145511;28;20053;-66
2022/06/13 09:20:22;;;;;;;8.32;3.58;;;35.60;86.70;;;;;;4144306;28;20058;-66
2022/06/13 09:22:36;;;;;;;6.60;3.25;;;35.60;86.20;;;;;;4154606;28;20067;-66
2022/06/13 09:24:47;;;;;;;6.68;3.50;;;35.60;87.00;;;;;;4153458;28;20053;-66
2022/06/13 09:27:03;;;;;;;7.05;3.50;;;35.50;87.30;;;;;;4178303;28;20474;-66
2022/06/13 09:29:19;;;;;;;9.13;3.40;;;35.40;87.30;;;;;;4151634;28;20065;-66
2022/06/13 09:31:40;;;;;;;10.15;3.70;;;35.30;88.80;;;;;;4161408;28;20041;-66
2022/06/13 09:33:51;;;;;;;8.88;3.78;;;35.20;89.00;;;;;;4163485;28;20046;-66
2022/06/13 09:36:19;;;;;;;5.53;3.45;;;35.30;89.50;;;;;;4154068;28;20381;-66
2022/06/13 09:38:45;;;;;;;7.47;3.35;;;35.20;89.20;;;;;;4160991;28;20519;-66
2022/06/13 09:41:14;;;;;;;6.35;3.42;;;35.30;88.80;;;;;;4142231;28;20111;-66
2022/06/13 09:43:44;;;;;;;9.88;4.15;;;35.30;88.20;;;;;;4141911;28;20405;-66
2022/06/13 09:46:02;;;;;;;6.97;3.25;;;35.20;88.70;;;;;;4161938;28;20481;-67
2022/06/13 09:48:22;;;;;;;7.90;3.42;;;35.20;87.80;;;;;;4155678;28;20041;-66
2022/06/13 09:50:33;;;;;;;6.93;3.55;;;35.10;88.80;;;;;;4162014;28;20141;-66
2022/06/13 09:52:56;;;;;;;9.02;4.10;;;35.00;88.90;;;;;;4160679;28;20073;-66
2022/06/13 09:55:10;;;;;;;6.78;3.63;;;34.90;89.20;;;;;;4155439;28;20054;-66
2022/06/13 09:57:24;;;;;;;6.65;3.70;;;34.80;88.90;;;;;;4171949;28;20077;-64
2022/06/13 09:59:32;;;;;;;7.90;3.85;;;34.70;89.10;;;;;;4144503;28;20038;-67
2022/06/13 10:01:45;;;;;;;7.88;3.95;;;34.60;88.60;;;;;;4160894;28;20504;-66
2022/06/13 10:04:10;;;;;;;7.82;4.40;;;34.50;89.20;;;;;;4145930;28;20148;-67
2022/06/13 10:06:32;;;;;;;8.65;3.80;;;34.50;89.90;;;;;;4151188;28;20056;-67
2022/06/13 10:08:49;;;;;;;13.13;4.35;;;34.40;90.20;;;;;;4160871;28;20039;-67
2022/06/13 10:11:20;;;;;;;10.57;4.18;;;34.40;90.20;;;;;;4163831;28;20484;-66
2022/06/13 10:13:36;;;;;;;7.78;4.25;;;34.20;90.00;;;;;;4164175;28;20192;-66
2022/06/13 10:15:46;;;;;;;7.13;4.13;;;34.20;90.30;;;;;;4146646;28;20042;-68
2022/06/13 10:18:00;;;;;;;9.80;4.50;;;34.10;90.30;;;;;;4147552;28;20168;-68
2022/06/13 10:20:30;;;;;;;8.73;4.82;;;34.10;90.50;;;;;;4165122;28;20080;-68
2022/06/13 10:22:59;;;;;;;9.63;3.88;;;34.00;90.00;;;;;;4165041;28;20407;-67
2022/06/13 10:25:14;;;;;;;14.30;3.35;;;33.30;89.80;;;;;;4163573;28;20093;-67
2022/06/13 10:27:30;;;;;;;7.72;2.67;;;32.70;90.20;;;;;;4140374;28;20042;-67
2022/06/13 10:29:49;;;;;;;6.07;2.30;;;32.10;90.80;;;;;;4160703;28;20108;-68
2022/06/13 10:32:13;;;;;;;9.38;3.10;;;32.10;91.10;;;;;;4164341;28;20049;-67
2022/06/13 10:34:36;;;;;;;;;;;32.20;91.20;;;;;;4157353;28;20073;-69
2022/06/13 10:36:54;;;;;;;10.35;2.85;;;32.30;91.00;;;;;;4165454;28;19956;-68
2022/06/13 10:39:10;;;;;;;7.70;2.70;;;32.50;90.90;;;;;;4164909;28;20049;-68
2022/06/13 10:41:15;;;;;;;10.48;4.13;;;32.80;90.90;;;;;;4164060;28;20045;-68
2022/06/13 10:43:22;;;;;;;10.15;3.53;;;32.90;91.10;;;;;;4165609;28;20076;-68
2022/06/13 10:45:27;;;;;;;12.82;5.80;;;32.80;91.30;;;;;;4155425;28;20100;-69
2022/06/13 10:47:46;;;;;;;10.32;5.00;;;33.00;91.30;;;;;;4147146;28;20048;-66
2022/06/13 10:49:59;;;;;;;6.50;3.25;;;32.80;92.20;;;;;;4162964;28;20060;-68
2022/06/13 10:52:15;;;;;;;8.38;3.10;;;32.40;92.80;;;;;;4164213;28;20358;-67
2022/06/13 10:54:21;;;;;;;8.70;3.13;;;32.40;93.30;;;;;;4164094;28;20061;-67
2022/06/13 10:56:50;;;;;;;8.07;2.78;;;32.10;93.90;;;;;;4111321;28;20039;-67
2022/06/13 10:58:57;;;;;;;4.35;2.00;;;31.80;94.30;;;;;;4150177;28;20037;-67
2022/06/13 11:01:08;;;;;;;4.32;2.15;;;31.50;93.90;;;;;;4146428;28;20046;-67
2022/06/13 11:03:16;;;;;;;;;;;31.60;94.10;;;;;;4158592;28;20044;-67
2022/06/13 11:05:23;;;;;;;3.33;1.40;;;31.70;93.80;;;;;;4159539;28;19925;-67
2022/06/13 11:07:31;;;;;;;4.40;1.85;;;31.60;93.60;;;;;;4155563;28;20044;-67
2022/06/13 11:09:49;;;;;;;4.53;1.52;;;31.40;95.00;;;;;;4145644;28;20050;-66
2022/06/13 11:11:59;;;;;;;3.97;1.80;;;31.30;95.30;;;;;;4145159;28;20068;-68
2022/06/13 11:14:25;;;;;;;7.07;3.00;;;31.30;95.70;;;;;;4146719;28;20042;-67
2022/06/13 11:24:03;;;;;;;8.18;2.20;;;31.10;97.00;;;;;;4147496;28;20141;-66
2022/06/13 11:28:38;;;;;;;9.35;3.72;;;31.10;96.60;;;;;;4145817;28;20041;-67
2022/06/13 11:30:46;;;;;;;9.05;4.10;;;30.90;97.00;;;;;;4168176;28;20045;-67
2022/06/13 11:32:58;;;;;;;9.13;3.60;;;30.50;97.50;;;;;;4143988;28;20132;-67
2022/06/13 11:35:08;;;;;;;7.37;2.97;;;30.50;98.00;;;;;;4153219;28;20052;-67
2022/06/13 11:37:23;;;;;;;3.85;2.58;;;30.50;97.20;;;;;;4142944;28;20401;-67
2022/06/13 11:39:39;;;;;;;4.30;2.88;;;30.40;97.50;;;;;;4159993;28;20051;-67
2022/06/13 11:41:45;;;;;;;6.22;3.55;;;30.60;97.50;;;;;;4131732;28;20435;-67
2022/06/13 11:44:01;;;;;;;11.25;7.65;;;30.80;98.00;;;;;;4138118;28;20042;-67